Time;durP1;ratioP1;P1;durP2;ratioP2;P2;SDS_P1;SDS_P2;PMS_P1;PMS_P2;Temp;Humidity;BMP_temperature;BMP_pressure;BME280_temperature;BME280_humidity;BME280_pressure;Samples;Min_cycle;Max_cycle;Signal;HPM_P1;HPM_P2
2020/12/02 00:02:00;;;;;;;15.85;11.63;;;21.10;40.50;;;;;;5077308;28;20056;-77
2020/12/02 00:04:29;;;;;;;16.65;11.90;;;21.00;40.50;;;;;;5101774;28;20050;-78
2020/12/02 00:06:56;;;;;;;15.52;11.38;;;21.00;40.50;;;;;;5093369;28;20390;-77
2020/12/02 00:09:23;;;;;;;15.38;11.13;;;21.00;40.40;;;;;;5087494;28;20040;-78
2020/12/02 00:11:51;;;;;;;16.17;10.52;;;21.00;40.40;;;;;;5091189;28;20054;-77
2020/12/02 00:14:28;;;;;;;19.10;10.75;;;21.00;40.40;;;;;;5102892;28;20122;-78
2020/12/02 00:16:55;;;;;;;15.20;11.30;;;21.00;40.60;;;;;;5092416;28;20385;-79
2020/12/02 00:19:22;;;;;;;15.73;10.90;;;21.00;40.50;;;;;;5093977;28;20052;-78
2020/12/02 00:22:05;;;;;;;15.88;10.65;;;21.00;40.40;;;;;;5115353;28;20047;-78
2020/12/02 00:24:34;;;;;;;16.90;11.10;;;21.00;40.40;;;;;;5068895;28;20054;-78
2020/12/02 00:27:03;;;;;;;18.88;11.65;;;21.00;40.30;;;;;;5106872;28;20578;-77
2020/12/02 00:29:29;;;;;;;15.25;10.85;;;20.90;40.30;;;;;;5089763;28;20051;-77
2020/12/02 00:31:56;;;;;;;14.23;10.98;;;20.90;40.30;;;;;;5114967;28;20058;-77
2020/12/02 00:34:22;;;;;;;17.17;11.43;;;20.90;40.20;;;;;;5111885;28;20043;-77
2020/12/02 00:36:48;;;;;;;14.57;11.00;;;20.90;40.20;;;;;;5114019;28;20054;-78
2020/12/02 00:39:15;;;;;;;18.70;11.82;;;20.90;40.20;;;;;;5089530;28;20052;-78
2020/12/02 00:41:45;;;;;;;15.40;10.80;;;20.90;40.20;;;;;;5114845;28;20043;-77
2020/12/02 00:44:12;;;;;;;14.88;10.48;;;20.90;40.20;;;;;;5100878;28;20050;-78
2020/12/02 00:46:39;;;;;;;14.55;10.23;;;20.90;40.20;;;;;;5096658;28;20055;-77
2020/12/02 00:49:05;;;;;;;14.10;10.55;;;20.90;40.20;;;;;;5108889;28;20519;-78
2020/12/02 00:51:32;;;;;;;15.57;10.85;;;20.90;40.20;;;;;;5114751;28;20053;-78
2020/12/02 00:53:58;;;;;;;14.50;10.77;;;20.80;40.10;;;;;;5096519;28;20051;-77
2020/12/02 00:56:25;;;;;;;13.63;10.35;;;20.80;40.10;;;;;;5085530;28;20044;-78
2020/12/02 00:59:12;;;;;;;14.45;10.45;;;20.80;40.10;;;;;;5096430;28;20500;-77
2020/12/02 01:01:45;;;;;;;14.68;10.70;;;20.80;40.10;;;;;;5107436;28;20390;-78
2020/12/02 01:04:17;;;;;;;15.23;11.30;;;20.80;40.10;;;;;;5109210;28;20055;-79
2020/12/02 01:06:46;;;;;;;14.18;10.15;;;20.80;40.10;;;;;;5076394;28;20054;-77
2020/12/02 01:09:16;;;;;;;14.02;10.88;;;20.80;40.00;;;;;;5083207;28;20071;-77
2020/12/02 01:11:44;;;;;;;14.40;10.35;;;20.80;40.10;;;;;;5082965;28;20051;-76
2020/12/02 01:14:16;;;;;;;12.90;9.93;;;20.80;40.00;;;;;;5075353;28;20052;-78
2020/12/02 01:16:51;;;;;;;14.93;11.02;;;20.80;39.90;;;;;;5096170;28;20481;-77
2020/12/02 01:19:26;;;;;;;14.60;11.30;;;20.80;39.90;;;;;;5086933;28;20040;-78
2020/12/02 01:22:25;;;;;;;16.75;10.23;;;20.80;39.90;;;;;;5110623;28;20048;-78
2020/12/02 01:25:00;;;;;;;16.25;9.82;;;20.70;39.80;;;;;;5108441;28;20059;-78
2020/12/02 01:27:35;;;;;;;16.25;11.07;;;20.70;39.80;;;;;;5112072;28;20054;-77
2020/12/02 01:30:08;;;;;;;18.27;10.27;;;20.70;39.80;;;;;;5103736;28;20055;-78
2020/12/02 01:32:35;;;;;;;15.90;11.50;;;20.70;39.70;;;;;;5114154;28;20074;-78
2020/12/02 01:35:03;;;;;;;19.42;10.52;;;20.70;39.80;;;;;;5095658;28;20048;-77
2020/12/02 01:37:31;;;;;;;18.67;10.70;;;20.70;39.80;;;;;;5113702;28;20055;-77
2020/12/02 01:40:18;;;;;;;16.85;10.90;;;20.70;39.70;;;;;;5107415;28;20055;-78
2020/12/02 01:42:51;;;;;;;15.40;10.70;;;20.70;39.70;;;;;;5112893;28;20043;-78
2020/12/02 01:45:38;;;;;;;16.63;10.80;;;20.70;39.80;;;;;;5095852;28;20044;-78
2020/12/02 01:48:47;;;;;;;15.32;10.27;;;20.70;39.70;;;;;;5095544;28;20052;-78
2020/12/02 01:51:36;;;;;;;15.63;10.75;;;20.70;39.60;;;;;;5098358;28;20144;-78
2020/12/02 01:54:11;;;;;;;15.50;9.67;;;20.70;39.70;;;;;;5113695;28;20075;-76
2020/12/02 01:56:49;;;;;;;14.70;10.13;;;20.70;39.60;;;;;;5090221;28;20040;-78
2020/12/02 01:59:37;;;;;;;16.20;10.40;;;20.70;39.60;;;;;;5092432;28;20047;-77
2020/12/02 02:02:28;;;;;;;22.83;10.65;;;20.70;39.60;;;;;;5082252;28;20040;-78
2020/12/02 02:05:07;;;;;;;;;;;20.70;39.70;;;;;;5113738;28;20075;-77
2020/12/02 02:07:36;;;;;;;17.33;10.60;;;20.60;39.60;;;;;;5081294;28;19998;-78
2020/12/02 02:10:35;;;;;;;20.58;11.02;;;20.60;39.60;;;;;;5097888;28;20048;-78
2020/12/02 02:13:02;;;;;;;17.75;11.13;;;20.60;39.60;;;;;;5073302;28;20071;-77
2020/12/02 02:15:40;;;;;;;16.25;10.65;;;20.60;39.60;;;;;;5110845;28;20044;-78
2020/12/02 02:18:10;;;;;;;17.63;10.98;;;20.60;39.60;;;;;;5095050;28;20052;-78
2020/12/02 02:20:44;;;;;;;15.10;10.20;;;20.60;39.60;;;;;;5091647;28;20032;-79
2020/12/02 02:23:14;;;;;;;14.73;10.32;;;20.60;39.60;;;;;;5110903;28;20062;-78
2020/12/02 02:25:53;;;;;;;15.40;11.07;;;20.60;39.60;;;;;;5109309;28;20079;-78
2020/12/02 02:28:21;;;;;;;13.45;10.07;;;20.50;39.50;;;;;;5113369;28;20160;-77
2020/12/02 02:30:49;;;;;;;15.63;10.90;;;20.60;39.60;;;;;;5115289;28;20044;-79
2020/12/02 02:33:17;;;;;;;14.15;10.65;;;20.60;39.60;;;;;;5100316;28;20044;-78
2020/12/02 02:35:44;;;;;;;17.45;10.80;;;20.50;39.60;;;;;;5106940;28;20493;-79
2020/12/02 02:38:11;;;;;;;19.02;9.95;;;20.50;39.50;;;;;;5100923;28;20048;-78
2020/12/02 02:40:37;;;;;;;21.52;10.65;;;20.50;39.50;;;;;;5098938;28;20066;-78
2020/12/02 02:43:06;;;;;;;18.70;10.80;;;20.50;39.50;;;;;;5109309;28;20046;-77
2020/12/02 02:45:32;;;;;;;15.02;10.50;;;20.50;39.50;;;;;;5108243;28;20052;-78
2020/12/02 02:48:06;;;;;;;15.35;10.52;;;20.50;39.50;;;;;;5102732;28;20052;-77
2020/12/02 02:50:35;;;;;;;16.42;10.55;;;20.50;39.50;;;;;;5085212;28;20040;-78
2020/12/02 02:53:12;;;;;;;14.23;9.88;;;20.50;39.50;;;;;;5117071;28;20044;-77
2020/12/02 02:55:39;;;;;;;13.77;10.10;;;20.50;39.40;;;;;;5098665;28;20044;-77
2020/12/02 02:58:06;;;;;;;19.48;11.32;;;20.50;39.50;;;;;;5088741;28;20075;-76
2020/12/02 03:00:33;;;;;;;14.30;10.50;;;20.50;39.50;;;;;;5084261;28;20059;-77
2020/12/02 03:03:00;;;;;;;14.52;10.13;;;20.40;39.40;;;;;;5117007;28;20048;-77
2020/12/02 03:05:27;;;;;;;13.55;10.38;;;20.40;39.30;;;;;;5116843;28;20048;-78
2020/12/02 03:08:01;;;;;;;15.18;10.40;;;20.40;39.40;;;;;;5114626;28;20044;-78
2020/12/02 03:10:32;;;;;;;13.25;9.93;;;20.40;39.30;;;;;;5100594;28;20060;-79
2020/12/02 03:12:59;;;;;;;;;;;20.40;39.40;;;;;;5114488;28;20421;-77
2020/12/02 03:15:26;;;;;;;12.40;9.75;;;20.40;39.30;;;;;;5095354;28;19926;-79
2020/12/02 03:17:53;;;;;;;12.45;9.95;;;20.40;39.30;;;;;;5082619;28;20595;-77
2020/12/02 03:20:41;;;;;;;13.93;10.00;;;20.40;39.30;;;;;;5095284;28;20055;-78
2020/12/02 03:23:11;;;;;;;12.93;10.40;;;20.40;39.20;;;;;;5098238;28;20058;-77
2020/12/02 03:25:39;;;;;;;14.27;10.67;;;20.40;39.30;;;;;;5098651;28;20055;-78
2020/12/02 03:28:05;;;;;;;14.20;9.95;;;20.40;39.80;;;;;;5083815;28;20051;-77
2020/12/02 03:30:32;;;;;;;15.88;9.82;;;20.40;39.20;;;;;;5090122;28;20075;-77
2020/12/02 03:32:58;;;;;;;15.40;9.88;;;20.40;39.20;;;;;;5092475;28;20581;-77
2020/12/02 03:35:28;;;;;;;13.40;8.75;;;20.40;39.20;;;;;;5116287;28;20051;-76
2020/12/02 03:37:54;;;;;;;15.05;10.57;;;20.40;39.20;;;;;;5089960;28;20130;-76
2020/12/02 03:40:21;;;;;;;14.18;9.73;;;20.40;39.20;;;;;;5098040;28;20047;-77
2020/12/02 03:42:47;;;;;;;14.15;10.00;;;20.30;39.20;;;;;;5116232;28;20052;-76
2020/12/02 03:45:14;;;;;;;13.65;9.27;;;20.40;39.20;;;;;;5115603;28;20508;-76
2020/12/02 03:47:41;;;;;;;16.80;10.55;;;20.40;39.20;;;;;;5113414;28;20567;-76
2020/12/02 03:50:10;;;;;;;12.35;9.52;;;20.40;39.20;;;;;;5095833;28;20056;-77
2020/12/02 03:52:37;;;;;;;12.02;9.32;;;20.30;39.20;;;;;;5097885;28;20051;-75
2020/12/02 03:55:04;;;;;;;13.13;10.13;;;20.40;39.20;;;;;;5115626;28;20579;-77
2020/12/02 03:57:31;;;;;;;13.68;9.57;;;20.30;39.20;;;;;;5106213;28;20055;-77
2020/12/02 03:59:58;;;;;;;13.98;9.68;;;20.30;39.10;;;;;;5083698;28;20082;-77
2020/12/02 04:02:24;;;;;;;14.43;9.68;;;20.30;39.10;;;;;;5094675;28;20043;-76
2020/12/02 04:04:50;;;;;;;14.88;10.65;;;20.30;39.20;;;;;;5115523;28;20063;-77
2020/12/02 04:07:17;;;;;;;12.48;9.88;;;20.30;39.10;;;;;;5115660;28;20039;-77
2020/12/02 04:09:44;;;;;;;15.40;10.20;;;20.30;39.20;;;;;;5099465;28;20052;-76
2020/12/02 04:12:11;;;;;;;13.88;9.98;;;20.30;39.20;;;;;;5093139;28;20047;-76
2020/12/02 04:14:37;;;;;;;11.95;9.20;;;20.30;39.10;;;;;;5096431;28;20043;-76
2020/12/02 04:17:04;;;;;;;14.73;10.90;;;20.30;39.10;;;;;;5101325;28;20050;-76
2020/12/02 04:19:30;;;;;;;15.32;10.02;;;20.30;39.10;;;;;;5106224;28;20043;-76
2020/12/02 04:21:57;;;;;;;15.13;10.55;;;20.30;39.10;;;;;;5077603;28;20040;-76
2020/12/02 04:24:23;;;;;;;15.43;10.32;;;20.20;39.10;;;;;;5114218;28;20051;-77
2020/12/02 04:26:50;;;;;;;14.00;9.73;;;20.20;39.10;;;;;;5115303;28;20043;-77
2020/12/02 04:29:17;;;;;;;19.10;11.32;;;20.20;39.10;;;;;;5107726;28;20054;-77
2020/12/02 04:31:44;;;;;;;13.43;10.70;;;20.20;39.10;;;;;;5106951;28;20055;-78
2020/12/02 04:34:10;;;;;;;12.73;9.88;;;20.20;39.10;;;;;;5106267;28;20065;-77
2020/12/02 04:36:37;;;;;;;12.35;9.38;;;20.20;39.30;;;;;;5114671;28;20070;-77
2020/12/02 04:39:05;;;;;;;13.25;9.63;;;20.20;39.50;;;;;;5111646;28;20125;-78
2020/12/02 04:41:33;;;;;;;11.63;9.40;;;20.20;39.70;;;;;;5095452;28;20044;-77
2020/12/02 04:44:00;;;;;;;12.68;9.43;;;20.30;40.00;;;;;;5102187;28;20056;-77
2020/12/02 04:46:31;;;;;;;14.13;9.88;;;20.30;39.80;;;;;;5100421;28;20051;-77
2020/12/02 04:49:09;;;;;;;14.50;10.93;;;20.30;39.60;;;;;;5113556;28;20050;-77
2020/12/02 04:51:36;;;;;;;15.98;9.18;;;20.40;39.60;;;;;;5102540;28;20411;-77
2020/12/02 04:54:03;;;;;;;13.90;9.30;;;20.40;39.40;;;;;;5114876;28;20097;-77
2020/12/02 04:56:30;;;;;;;11.98;8.98;;;20.60;39.30;;;;;;5104251;28;20047;-77
2020/12/02 04:58:57;;;;;;;15.63;9.50;;;20.60;39.10;;;;;;5091668;28;20051;-77
2020/12/02 05:01:29;;;;;;;13.70;8.98;;;20.70;39.00;;;;;;5095060;28;20047;-77
2020/12/02 05:04:05;;;;;;;19.00;9.77;;;20.70;38.90;;;;;;5090854;28;20044;-76
2020/12/02 05:06:31;;;;;;;12.13;9.27;;;20.80;38.80;;;;;;5095388;28;20044;-78
2020/12/02 05:09:21;;;;;;;11.45;9.13;;;20.90;38.80;;;;;;5089461;28;20439;-77
2020/12/02 05:12:13;;;;;;;25.25;8.82;;;21.00;38.90;;;;;;5094055;28;20050;-76
2020/12/02 05:14:42;;;;;;;12.80;9.30;;;21.00;39.10;;;;;;5074002;28;20093;-77
2020/12/02 05:17:15;;;;;;;15.82;8.90;;;21.10;39.00;;;;;;5096625;28;20048;-76
2020/12/02 05:19:43;;;;;;;13.70;8.27;;;21.10;38.80;;;;;;5106087;28;20431;-77
2020/12/02 05:22:17;;;;;;;11.15;8.52;;;21.20;38.70;;;;;;5106031;28;20044;-77
2020/12/02 05:24:50;;;;;;;11.32;8.30;;;21.20;38.50;;;;;;5089525;28;20070;-77
2020/12/02 05:27:28;;;;;;;14.32;8.93;;;21.30;38.60;;;;;;5087952;28;20051;-77
2020/12/02 05:30:03;;;;;;;22.77;8.52;;;21.30;38.50;;;;;;5088416;28;20098;-76
2020/12/02 05:32:29;;;;;;;13.55;8.82;;;21.40;38.50;;;;;;5078353;28;20051;-76
2020/12/02 05:34:57;;;;;;;15.00;9.00;;;21.40;39.20;;;;;;5073312;28;20043;-77
2020/12/02 05:37:48;;;;;;;15.43;8.73;;;21.40;39.10;;;;;;5089712;28;20101;-78
2020/12/02 05:40:18;;;;;;;14.82;9.30;;;21.40;39.10;;;;;;5093379;28;20489;-78
2020/12/02 05:43:05;;;;;;;24.02;9.40;;;21.50;38.80;;;;;;5073973;28;20379;-75
2020/12/02 05:45:40;;;;;;;17.73;8.75;;;21.50;38.50;;;;;;5084019;28;20060;-74
2020/12/02 05:48:16;;;;;;;27.98;9.82;;;21.50;38.40;;;;;;5104640;28;20061;-74
2020/12/02 05:50:45;;;;;;;25.55;9.57;;;21.50;38.80;;;;;;5103082;28;20052;-74
2020/12/02 05:53:39;;;;;;;25.48;9.90;;;21.50;40.40;;;;;;5106394;28;20110;-75
2020/12/02 05:56:09;;;;;;;20.88;10.30;;;21.50;41.20;;;;;;5063202;28;20071;-76
2020/12/02 05:58:40;;;;;;;21.13;9.00;;;21.50;41.00;;;;;;5076798;28;20048;-75
2020/12/02 06:01:19;;;;;;;18.75;9.27;;;21.60;41.00;;;;;;5107942;28;20068;-75
2020/12/02 06:03:52;;;;;;;25.63;9.48;;;21.60;40.80;;;;;;5076411;28;20054;-76
2020/12/02 06:06:20;;;;;;;20.80;9.85;;;21.60;41.00;;;;;;5079183;28;20075;-75
2020/12/02 06:08:52;;;;;;;23.85;10.15;;;21.60;40.10;;;;;;5063262;28;20139;-75
2020/12/02 06:11:24;;;;;;;18.20;9.85;;;21.60;39.80;;;;;;5076111;28;20114;-75
2020/12/02 06:13:58;;;;;;;18.98;9.70;;;21.70;39.50;;;;;;5076395;28;20131;-75
2020/12/02 06:16:24;;;;;;;15.48;9.10;;;21.70;39.30;;;;;;5073848;28;20076;-75
2020/12/02 06:19:16;;;;;;;16.83;9.02;;;21.70;39.10;;;;;;5098126;28;20048;-76
2020/12/02 06:22:02;;;;;;;17.80;9.65;;;21.70;38.80;;;;;;5104377;28;20036;-76
2020/12/02 06:24:33;;;;;;;18.45;9.68;;;21.70;38.70;;;;;;5079062;28;20083;-75
2020/12/02 06:27:03;;;;;;;15.63;8.23;;;21.70;38.70;;;;;;5079374;28;20073;-76
2020/12/02 06:29:37;;;;;;;;;;;21.70;38.70;;;;;;5072519;28;20055;-76
2020/12/02 06:32:22;;;;;;;13.07;8.30;;;21.80;38.80;;;;;;5089219;28;19930;-76
2020/12/02 06:35:05;;;;;;;19.55;8.35;;;21.80;39.10;;;;;;5094902;28;20492;-75
2020/12/02 06:37:31;;;;;;;16.27;8.30;;;21.80;39.30;;;;;;5082801;28;20071;-76
2020/12/02 06:40:00;;;;;;;10.77;7.93;;;21.80;39.30;;;;;;5094736;28;20127;-75
2020/12/02 06:42:41;;;;;;;17.00;8.98;;;21.80;39.40;;;;;;5091738;28;20560;-76
2020/12/02 06:45:10;;;;;;;17.77;7.90;;;21.80;39.70;;;;;;5085522;28;20047;-75
2020/12/02 06:47:58;;;;;;;17.00;8.73;;;21.80;39.80;;;;;;5081363;28;20048;-75
2020/12/02 06:50:29;;;;;;;11.52;8.02;;;21.80;39.80;;;;;;5084903;28;20176;-75
2020/12/02 06:53:08;;;;;;;11.77;8.05;;;21.80;39.80;;;;;;5094954;28;20066;-75
2020/12/02 06:55:34;;;;;;;12.52;8.18;;;21.70;39.70;;;;;;5099934;28;20503;-76
2020/12/02 06:58:04;;;;;;;16.50;9.00;;;21.70;39.80;;;;;;5103825;28;20055;-75
2020/12/02 07:01:01;;;;;;;12.30;8.57;;;21.70;39.80;;;;;;5112596;28;20050;-76
2020/12/02 07:03:30;;;;;;;13.50;7.50;;;21.70;39.80;;;;;;5113036;28;20050;-77
2020/12/02 07:06:25;;;;;;;15.15;8.52;;;21.60;39.80;;;;;;5084482;28;20492;-76
2020/12/02 07:09:05;;;;;;;19.85;8.35;;;21.60;39.90;;;;;;5071917;28;20046;-75
2020/12/02 07:11:32;;;;;;;20.23;9.23;;;21.50;39.90;;;;;;5081471;28;20047;-76
2020/12/02 07:14:19;;;;;;;16.73;8.90;;;21.50;39.90;;;;;;5104387;28;20043;-76
2020/12/02 07:16:46;;;;;;;12.75;8.80;;;21.40;39.80;;;;;;5081604;28;20499;-76
2020/12/02 07:19:15;;;;;;;14.27;8.25;;;21.40;39.80;;;;;;5098288;28;20132;-76
2020/12/02 07:21:49;;;;;;;14.38;8.40;;;21.40;39.80;;;;;;5089476;28;20040;-76
2020/12/02 07:24:24;;;;;;;15.48;8.77;;;21.40;39.90;;;;;;5097798;28;20048;-76
2020/12/02 07:26:51;;;;;;;14.68;8.45;;;21.30;39.80;;;;;;5109328;28;20098;-76
2020/12/02 07:29:21;;;;;;;13.32;8.77;;;21.30;39.90;;;;;;5098065;28;20047;-75
2020/12/02 07:32:03;;;;;;;11.82;8.82;;;21.20;39.80;;;;;;5108484;28;20043;-75
2020/12/02 07:34:31;;;;;;;12.68;8.60;;;21.20;39.80;;;;;;5116010;28;20051;-75
2020/12/02 07:37:20;;;;;;;14.50;9.25;;;21.20;39.80;;;;;;5089439;28;20044;-76
2020/12/02 07:39:51;;;;;;;14.15;8.85;;;21.20;39.80;;;;;;5080314;28;20047;-76
2020/12/02 07:42:26;;;;;;;14.05;8.70;;;21.10;39.80;;;;;;5079690;28;20046;-76
2020/12/02 07:45:19;;;;;;;16.35;8.40;;;21.10;39.80;;;;;;5115277;28;20117;-77
2020/12/02 07:47:54;;;;;;;13.93;8.27;;;21.10;39.70;;;;;;5115752;28;20051;-74
2020/12/02 07:50:21;;;;;;;12.93;8.52;;;21.10;39.70;;;;;;5089354;28;20059;-76
2020/12/02 07:52:53;;;;;;;17.90;8.85;;;21.10;39.70;;;;;;5091238;28;20127;-77
2020/12/02 07:55:34;;;;;;;13.73;8.95;;;21.10;39.60;;;;;;5110579;28;20059;-77
2020/12/02 07:58:10;;;;;;;16.20;9.43;;;21.10;39.50;;;;;;5101492;28;20078;-78
2020/12/02 08:00:41;;;;;;;16.63;9.70;;;21.10;39.30;;;;;;5108870;28;20405;-76
2020/12/02 08:03:43;;;;;;;15.45;8.68;;;21.10;39.20;;;;;;5097589;28;20058;-76
2020/12/02 08:06:09;;;;;;;16.33;9.10;;;21.20;39.10;;;;;;5100338;28;20037;-78
2020/12/02 08:08:35;;;;;;;16.10;8.70;;;21.20;38.90;;;;;;5081229;28;20127;-76
2020/12/02 08:11:17;;;;;;;15.10;8.75;;;21.30;38.90;;;;;;5085256;28;20052;-76
2020/12/02 08:13:53;;;;;;;12.82;8.40;;;21.30;38.90;;;;;;5108116;28;20048;-74
2020/12/02 08:16:42;;;;;;;10.57;8.02;;;21.30;38.80;;;;;;5106363;28;20091;-76
2020/12/02 08:19:11;;;;;;;;;;;21.30;38.60;;;;;;5115299;28;20086;-76
2020/12/02 08:21:49;;;;;;;14.63;8.63;;;21.40;38.60;;;;;;5094543;28;20383;-75
2020/12/02 08:24:38;;;;;;;13.48;8.88;;;21.50;38.70;;;;;;5100317;28;20043;-76
2020/12/02 08:27:11;;;;;;;14.00;8.90;;;21.50;38.50;;;;;;5087961;28;20047;-76
2020/12/02 08:29:39;;;;;;;10.47;8.30;;;21.50;38.50;;;;;;5090645;28;20052;-76
2020/12/02 08:32:20;;;;;;;14.15;8.10;;;21.50;38.40;;;;;;5089720;28;20052;-76
2020/12/02 08:34:46;;;;;;;11.23;7.70;;;21.60;38.40;;;;;;5097274;28;20055;-76
2020/12/02 08:37:22;;;;;;;11.27;8.13;;;21.60;38.30;;;;;;5111637;28;20496;-76
2020/12/02 08:39:53;;;;;;;13.50;9.43;;;21.60;38.20;;;;;;5114872;28;20054;-76
2020/12/02 08:42:41;;;;;;;25.85;7.97;;;21.60;38.20;;;;;;5109343;28;20051;-76
2020/12/02 08:45:20;;;;;;;12.60;8.93;;;21.70;38.20;;;;;;5108829;28;20043;-76
2020/12/02 08:47:54;;;;;;;14.90;9.02;;;21.70;38.10;;;;;;5114698;28;20058;-76
2020/12/02 08:50:27;;;;;;;12.18;8.43;;;21.70;38.10;;;;;;5101426;28;20059;-77
2020/12/02 08:52:55;;;;;;;11.80;8.48;;;21.70;38.00;;;;;;5098706;28;20131;-76
2020/12/02 08:55:22;;;;;;;10.82;8.15;;;21.70;38.00;;;;;;5114597;28;20058;-77
2020/12/02 08:57:49;;;;;;;14.38;8.68;;;21.80;38.10;;;;;;5099593;28;20051;-78
2020/12/02 09:00:17;;;;;;;17.77;8.73;;;21.80;38.00;;;;;;5093088;28;20054;-77
2020/12/02 09:02:44;;;;;;;14.80;8.73;;;21.80;38.90;;;;;;5113661;28;20477;-77
2020/12/02 09:05:11;;;;;;;15.65;9.13;;;21.80;39.90;;;;;;5108653;28;20054;-76
2020/12/02 09:07:38;;;;;;;14.10;9.25;;;21.80;40.00;;;;;;5100501;28;20044;-75
2020/12/02 09:10:06;;;;;;;14.48;8.77;;;21.80;40.00;;;;;;5094552;28;20393;-76
2020/12/02 09:12:33;;;;;;;18.50;12.60;;;21.90;40.00;;;;;;5101058;28;20044;-77
2020/12/02 09:14:59;;;;;;;24.58;14.63;;;21.90;39.80;;;;;;5103279;28;20071;-77
2020/12/02 09:17:26;;;;;;;22.25;14.50;;;21.90;39.50;;;;;;5114388;28;20058;-76
2020/12/02 09:19:52;;;;;;;18.08;13.45;;;21.90;39.30;;;;;;5113006;28;20046;-77
2020/12/02 09:22:20;;;;;;;22.77;13.55;;;21.90;39.30;;;;;;5096210;28;20058;-77
2020/12/02 09:24:48;;;;;;;18.95;13.50;;;21.90;39.10;;;;;;5080622;28;20048;-77
2020/12/02 09:27:15;;;;;;;19.48;13.13;;;21.90;39.00;;;;;;5096000;28;20135;-76
2020/12/02 09:29:45;;;;;;;26.55;13.35;;;21.90;39.00;;;;;;5085150;28;20048;-78
2020/12/02 09:32:11;;;;;;;21.08;11.77;;;21.90;38.90;;;;;;5094581;28;20428;-77
2020/12/02 09:34:38;;;;;;;19.15;11.65;;;21.90;38.80;;;;;;5084520;28;20451;-75
2020/12/02 09:37:10;;;;;;;23.10;11.05;;;22.00;38.80;;;;;;5112789;28;20062;-77
2020/12/02 09:39:37;;;;;;;20.92;11.60;;;22.00;38.80;;;;;;5111428;28;20054;-77
2020/12/02 09:42:48;;;;;;;15.93;10.32;;;22.00;38.80;;;;;;5113817;28;20381;-77
2020/12/02 09:45:29;;;;;;;18.67;9.88;;;22.00;38.70;;;;;;5071826;28;20062;-76
2020/12/02 09:48:07;;;;;;;18.50;10.07;;;22.00;38.70;;;;;;5092851;28;20075;-78
2020/12/02 09:50:36;;;;;;;24.30;10.20;;;22.00;38.60;;;;;;5094568;28;20139;-77
2020/12/02 09:53:24;;;;;;;20.55;9.35;;;22.00;38.60;;;;;;5083722;28;20048;-77
2020/12/02 09:55:51;;;;;;;13.57;8.35;;;22.00;38.50;;;;;;5091965;28;20401;-77
2020/12/02 09:58:19;;;;;;;18.90;9.48;;;22.00;38.40;;;;;;5086442;28;20043;-77
2020/12/02 10:00:47;;;;;;;15.30;8.88;;;22.00;38.40;;;;;;5092497;28;20159;-76
2020/12/02 10:03:29;;;;;;;13.15;9.20;;;22.00;38.40;;;;;;5104122;28;20043;-75
2020/12/02 10:06:28;;;;;;;12.32;9.05;;;22.00;38.30;;;;;;5094560;28;20048;-76
2020/12/02 10:09:06;;;;;;;14.30;9.57;;;22.00;38.20;;;;;;5069489;28;20044;-76
2020/12/02 10:11:48;;;;;;;13.55;9.55;;;22.10;38.20;;;;;;5090298;28;20044;-77
2020/12/02 10:14:36;;;;;;;11.65;8.43;;;22.10;38.10;;;;;;5095056;28;20040;-77
2020/12/02 10:17:30;;;;;;;12.27;9.00;;;22.10;38.10;;;;;;5085923;28;20049;-77
2020/12/02 10:20:18;;;;;;;11.90;8.90;;;22.10;38.00;;;;;;5100205;28;20048;-77
2020/12/02 10:22:50;;;;;;;11.82;8.30;;;22.10;38.00;;;;;;5104012;28;20052;-76
2020/12/02 10:25:32;;;;;;;17.05;9.35;;;22.10;38.00;;;;;;5095014;28;20040;-76
2020/12/02 10:28:08;;;;;;;12.85;8.95;;;22.10;38.00;;;;;;5098794;28;20071;-76
2020/12/02 10:30:45;;;;;;;13.13;8.85;;;22.00;37.90;;;;;;5107263;28;20063;-77
2020/12/02 10:33:49;;;;;;;11.85;9.27;;;22.10;38.00;;;;;;5091853;28;20051;-77
2020/12/02 10:36:16;;;;;;;15.07;9.35;;;22.10;37.90;;;;;;5096589;28;20047;-76
2020/12/02 10:38:51;;;;;;;11.68;8.65;;;22.10;37.90;;;;;;5087664;28;20405;-77
2020/12/02 10:41:38;;;;;;;13.00;9.43;;;22.10;37.90;;;;;;5100371;28;20048;-76
2020/12/02 10:44:26;;;;;;;15.25;8.98;;;22.10;37.90;;;;;;5109681;28;20046;-76
2020/12/02 10:47:24;;;;;;;15.38;9.55;;;22.10;37.90;;;;;;5112907;28;20126;-77
2020/12/02 10:49:50;;;;;;;10.93;8.38;;;22.10;37.80;;;;;;5076168;28;20078;-77
2020/12/02 10:52:18;;;;;;;11.93;8.82;;;22.10;37.80;;;;;;5097601;28;20130;-77
2020/12/02 10:54:49;;;;;;;12.15;8.93;;;22.10;37.80;;;;;;5086146;28;20396;-77
2020/12/02 10:57:20;;;;;;;12.18;9.00;;;22.10;37.80;;;;;;5104469;28;20040;-78
2020/12/02 10:59:51;;;;;;;12.02;8.60;;;22.10;37.70;;;;;;5116759;28;20523;-77
2020/12/02 11:02:21;;;;;;;16.40;9.43;;;22.10;37.70;;;;;;5097280;28;20412;-77
2020/12/02 11:04:49;;;;;;;16.33;10.20;;;22.10;37.70;;;;;;5102361;28;20040;-77
2020/12/02 11:07:56;;;;;;;14.10;10.00;;;22.10;37.70;;;;;;5078243;28;20063;-76
2020/12/02 11:10:40;;;;;;;12.45;8.57;;;22.10;37.60;;;;;;5079858;28;20043;-77
2020/12/02 11:13:15;;;;;;;14.60;8.55;;;22.10;37.60;;;;;;5088540;28;20497;-77
2020/12/02 11:16:05;;;;;;;12.30;9.27;;;22.10;37.60;;;;;;5112306;28;20064;-77
2020/12/02 11:18:37;;;;;;;11.27;8.73;;;22.10;37.50;;;;;;5112504;28;20054;-78
2020/12/02 11:21:28;;;;;;;12.68;9.43;;;22.10;37.40;;;;;;5071607;28;20771;-78
2020/12/02 11:24:22;;;;;;;13.55;9.15;;;22.10;37.50;;;;;;5082029;28;20486;-81
2020/12/02 11:26:49;;;;;;;11.27;8.70;;;22.10;37.50;;;;;;5094925;28;20075;-78
2020/12/02 11:29:18;;;;;;;14.25;9.00;;;22.10;37.40;;;;;;5095388;28;20040;-79
2020/12/02 11:31:50;;;;;;;13.05;9.48;;;22.10;37.30;;;;;;5100664;28;20040;-78
2020/12/02 11:34:50;;;;;;;10.73;8.52;;;22.10;37.40;;;;;;5090376;28;20048;-78
2020/12/02 11:37:30;;;;;;;12.85;8.98;;;22.10;37.30;;;;;;5091209;28;20062;-78
2020/12/02 11:40:17;;;;;;;13.40;9.73;;;22.10;37.30;;;;;;5098238;28;20052;-77
2020/12/02 11:43:08;;;;;;;13.70;9.70;;;22.10;37.20;;;;;;5079631;28;20051;-78
2020/12/02 11:45:38;;;;;;;12.98;9.20;;;22.10;37.20;;;;;;5116131;28;20058;-78
2020/12/02 11:48:25;;;;;;;14.73;9.45;;;22.20;37.20;;;;;;5110388;28;20419;-76
2020/12/02 11:51:12;;;;;;;12.95;9.20;;;22.20;37.20;;;;;;5114070;28;20059;-75
2020/12/02 11:53:46;;;;;;;12.63;9.70;;;22.20;37.20;;;;;;5097809;28;20044;-78
2020/12/02 11:56:21;;;;;;;16.05;9.25;;;22.20;37.20;;;;;;5091443;28;20082;-75
2020/12/02 11:58:59;;;;;;;13.65;9.65;;;22.10;37.10;;;;;;5109726;28;20138;-76
2020/12/02 12:01:45;;;;;;;16.80;10.75;;;22.20;37.10;;;;;;5094633;28;20039;-77
2020/12/02 12:04:22;;;;;;;13.10;9.43;;;22.20;37.20;;;;;;5111953;28;20054;-78
2020/12/02 12:06:53;;;;;;;22.27;9.43;;;22.20;37.60;;;;;;5097896;28;20075;-77
2020/12/02 12:09:46;;;;;;;14.98;9.48;;;22.20;37.60;;;;;;5105271;28;20497;-77
2020/12/02 12:12:41;;;;;;;16.58;9.85;;;22.20;37.70;;;;;;5093328;28;20039;-76
2020/12/02 12:15:26;;;;;;;12.65;8.82;;;22.10;37.60;;;;;;5101017;28;20052;-76
2020/12/02 12:17:54;;;;;;;13.20;9.32;;;22.20;37.60;;;;;;5097530;28;20048;-76
2020/12/02 12:23:52;;;;;;;21.17;10.45;;;22.10;37.40;;;;;;5106364;28;20128;-77
2020/12/02 12:26:19;;;;;;;14.43;9.23;;;22.10;37.40;;;;;;5114910;28;20572;-77
2020/12/02 12:28:46;;;;;;;16.00;8.50;;;22.10;37.40;;;;;;5099572;28;20047;-77
2020/12/02 12:31:23;;;;;;;12.40;8.95;;;22.10;37.30;;;;;;5102013;28;20058;-77
2020/12/02 12:34:05;;;;;;;15.13;9.18;;;22.10;37.30;;;;;;5115566;28;20040;-77
2020/12/02 12:36:33;;;;;;;13.05;8.77;;;22.10;37.20;;;;;;5094659;28;20055;-76
2020/12/02 12:39:07;;;;;;;15.90;9.80;;;22.10;37.20;;;;;;5089080;28;20048;-76
2020/12/02 12:41:45;;;;;;;18.05;10.27;;;22.20;37.20;;;;;;5077272;28;20412;-75
2020/12/02 12:44:21;;;;;;;14.07;10.30;;;22.10;37.20;;;;;;5108451;28;20055;-76
2020/12/02 12:46:52;;;;;;;15.38;9.73;;;22.20;37.20;;;;;;5097071;28;20078;-76
2020/12/02 12:49:19;;;;;;;18.83;9.10;;;22.10;37.20;;;;;;5111381;28;20054;-78
2020/12/02 12:51:46;;;;;;;15.55;9.13;;;22.20;37.20;;;;;;5085798;28;20063;-77
2020/12/02 12:54:19;;;;;;;14.95;9.13;;;22.10;37.40;;;;;;5101600;28;20089;-77
2020/12/02 12:56:46;;;;;;;15.60;9.40;;;22.20;37.30;;;;;;5103671;28;20093;-78
2020/12/02 12:59:16;;;;;;;14.20;9.90;;;22.10;37.20;;;;;;5103257;28;20059;-78
2020/12/02 13:01:50;;;;;;;13.77;8.88;;;22.20;37.20;;;;;;5095823;28;20056;-77
2020/12/02 13:04:21;;;;;;;14.07;9.43;;;22.20;37.20;;;;;;5099068;28;20386;-78
2020/12/02 13:07:06;;;;;;;14.65;9.45;;;22.10;37.20;;;;;;5099660;28;20063;-78
2020/12/02 13:10:02;;;;;;;17.98;9.50;;;22.20;37.20;;;;;;5084506;28;20049;-78
2020/12/02 13:12:54;;;;;;;15.65;8.75;;;22.20;37.20;;;;;;5095791;28;20047;-77
2020/12/02 13:15:57;;;;;;;14.52;8.55;;;22.20;37.20;;;;;;5089216;28;20071;-77